Time;durP1;ratioP1;P1;durP2;ratioP2;P2;SDS_P1;SDS_P2;PMS_P1;PMS_P2;Temp;Humidity;BMP_temperature;BMP_pressure;BME280_temperature;BME280_humidity;BME280_pressure;Samples;Min_cycle;Max_cycle;Signal;HPM_P1;HPM_P2
2023/04/17 00:02:12;;;;;;;40.83;28.67;;;12.40;99.90;;;;;;5015080;28;20487;-72
2023/04/17 00:04:41;;;;;;;36.20;28.00;;;12.40;99.90;;;;;;5016223;28;20557;-72
2023/04/17 00:07:08;;;;;;;35.80;27.80;;;12.40;99.90;;;;;;5014894;28;20511;-72
2023/04/17 00:09:35;;;;;;;38.53;27.40;;;12.40;99.90;;;;;;5016222;28;20860;-72
2023/04/17 00:12:04;;;;;;;34.33;27.17;;;12.40;99.90;;;;;;5016223;28;20451;-72
2023/04/17 00:14:31;;;;;;;36.27;29.03;;;12.40;99.90;;;;;;5016054;28;20447;-72
2023/04/17 00:16:58;;;;;;;39.97;27.60;;;12.40;99.90;;;;;;5014766;28;20471;-72
2023/04/17 00:19:25;;;;;;;36.87;28.20;;;12.50;99.90;;;;;;5014863;28;20487;-72
2023/04/17 00:21:51;;;;;;;43.23;29.10;;;12.50;99.90;;;;;;5015572;28;20557;-72
2023/04/17 00:24:18;;;;;;;40.33;28.27;;;12.50;99.90;;;;;;5015941;28;20809;-72
2023/04/17 00:26:45;;;;;;;41.93;29.73;;;12.50;99.90;;;;;;5015521;28;20470;-72
2023/04/17 00:29:14;;;;;;;38.50;28.30;;;12.50;99.90;;;;;;5014573;28;20956;-72
2023/04/17 00:31:41;;;;;;;36.87;28.93;;;12.50;99.90;;;;;;5015761;28;20443;-72
2023/04/17 00:34:08;;;;;;;39.60;28.50;;;12.50;99.90;;;;;;5015689;28;20454;-72
2023/04/17 00:36:35;;;;;;;32.67;26.90;;;12.50;99.90;;;;;;5014299;28;20851;-72
2023/04/17 00:39:02;;;;;;;33.33;29.70;;;12.50;99.90;;;;;;5015721;28;20827;-72
2023/04/17 00:41:29;;;;;;;41.50;29.70;;;12.50;99.90;;;;;;5014786;28;21011;-72
2023/04/17 00:43:56;;;;;;;33.87;28.67;;;12.50;99.90;;;;;;5015770;28;20497;-72
2023/04/17 00:46:25;;;;;;;37.60;28.70;;;12.50;99.90;;;;;;5015562;28;20471;-72
2023/04/17 00:48:52;;;;;;;35.77;29.57;;;12.50;99.90;;;;;;5015922;28;20455;-72
2023/04/17 00:51:20;;;;;;;35.83;29.10;;;12.50;99.90;;;;;;5015978;28;20452;-72
2023/04/17 00:53:48;;;;;;;39.83;29.57;;;12.50;99.90;;;;;;5016408;28;20462;-72
2023/04/17 00:56:15;;;;;;;33.47;29.23;;;12.50;99.90;;;;;;5017862;28;20467;-72
2023/04/17 00:58:43;;;;;;;41.03;30.57;;;12.50;99.90;;;;;;5017791;28;20482;-72
2023/04/17 01:01:10;;;;;;;39.03;28.20;;;12.50;99.90;;;;;;5018881;28;20824;-72
2023/04/17 01:03:39;;;;;;;34.87;26.40;;;12.40;99.90;;;;;;5020037;28;20490;-72
2023/04/17 01:06:06;;;;;;;41.27;28.70;;;12.40;99.90;;;;;;5021027;28;20479;-72
2023/04/17 01:08:41;;;;;;;44.27;30.53;;;12.40;99.90;;;;;;5022616;28;20447;-72
2023/04/17 01:11:08;;;;;;;35.17;28.70;;;12.40;99.90;;;;;;5027760;28;20442;-74
2023/04/17 01:13:43;;;;;;;38.43;31.10;;;12.40;99.90;;;;;;5022604;28;20456;-72
2023/04/17 01:16:10;;;;;;;37.20;27.30;;;12.40;99.90;;;;;;5014874;28;20482;-72
2023/04/17 01:18:38;;;;;;;36.17;29.37;;;12.40;99.90;;;;;;5014856;28;20459;-73
2023/04/17 01:21:05;;;;;;;35.30;27.33;;;12.40;99.90;;;;;;5014602;28;20454;-72
2023/04/17 01:23:44;;;;;;;33.10;27.53;;;12.50;99.90;;;;;;5014951;28;20486;-72
2023/04/17 01:26:16;;;;;;;33.60;26.77;;;12.50;99.90;;;;;;5015311;28;21046;-72
2023/04/17 01:28:43;;;;;;;40.93;29.40;;;12.40;99.90;;;;;;5015960;28;20456;-72
2023/04/17 01:31:15;;;;;;;42.47;30.50;;;12.50;99.90;;;;;;5014252;28;20483;-72
2023/04/17 01:33:42;;;;;;;32.17;26.77;;;12.50;99.90;;;;;;5015268;28;20424;-72
2023/04/17 01:36:09;;;;;;;39.97;29.80;;;12.40;99.90;;;;;;5015139;28;20972;-72
2023/04/17 01:38:37;;;;;;;33.87;27.93;;;12.40;99.90;;;;;;5014060;28;20462;-72
2023/04/17 01:41:08;;;;;;;32.23;27.53;;;12.40;99.90;;;;;;5018513;28;20455;-73
2023/04/17 01:43:38;;;;;;;36.40;31.30;;;12.40;99.90;;;;;;5017799;28;20468;-72
2023/04/17 01:46:06;;;;;;;35.73;29.13;;;12.40;99.90;;;;;;5014366;28;20468;-73
2023/04/17 01:48:33;;;;;;;32.70;28.33;;;12.40;99.90;;;;;;5013287;28;20510;-72
2023/04/17 01:51:00;;;;;;;34.97;27.33;;;12.40;99.90;;;;;;5021681;28;20951;-72
2023/04/17 01:53:27;;;;;;;34.90;27.57;;;12.40;99.90;;;;;;5033735;28;20447;-72
2023/04/17 01:55:54;;;;;;;34.03;27.70;;;12.30;99.90;;;;;;5033956;28;20478;-72
2023/04/17 01:58:21;;;;;;;28.93;25.20;;;12.30;99.90;;;;;;5032810;28;20492;-72
2023/04/17 02:00:50;;;;;;;39.27;28.27;;;12.40;99.90;;;;;;5032819;28;20443;-72
2023/04/17 02:03:17;;;;;;;38.30;28.77;;;12.40;99.90;;;;;;5033947;28;20506;-72
2023/04/17 02:05:46;;;;;;;35.30;27.20;;;12.40;99.90;;;;;;5032792;28;20478;-72
2023/04/17 02:08:13;;;;;;;36.17;25.07;;;12.40;99.90;;;;;;5034033;28;20486;-72
2023/04/17 02:10:40;;;;;;;30.33;26.00;;;12.40;99.90;;;;;;5033903;28;20446;-72
2023/04/17 02:13:08;;;;;;;34.43;28.60;;;12.40;99.90;;;;;;5033313;28;20986;-72
2023/04/17 02:15:35;;;;;;;36.80;29.80;;;12.40;99.90;;;;;;5034305;28;20450;-72
2023/04/17 02:18:04;;;;;;;35.87;29.10;;;12.40;99.90;;;;;;5033111;28;20506;-72
2023/04/17 02:20:32;;;;;;;40.90;30.90;;;12.40;99.90;;;;;;5034453;28;20482;-72
2023/04/17 02:22:59;;;;;;;34.10;29.60;;;12.40;99.90;;;;;;5034669;28;20494;-72
2023/04/17 02:25:26;;;;;;;38.27;31.00;;;12.30;99.90;;;;;;5034486;28;20447;-72
2023/04/17 02:27:55;;;;;;;38.90;29.13;;;12.30;99.90;;;;;;5037341;28;20471;-72
2023/04/17 02:30:21;;;;;;;41.93;32.27;;;12.30;99.90;;;;;;5035922;28;20450;-72
2023/04/17 02:32:50;;;;;;;35.73;28.50;;;12.30;99.90;;;;;;5044729;28;20439;-72
2023/04/17 02:35:19;;;;;;;39.03;29.83;;;12.30;99.90;;;;;;5042560;28;20452;-72
2023/04/17 02:37:46;;;;;;;35.50;28.90;;;12.30;99.90;;;;;;5033963;28;20466;-72
2023/04/17 02:40:14;;;;;;;34.97;28.90;;;12.30;99.90;;;;;;5033081;28;20447;-72
2023/04/17 02:42:41;;;;;;;38.90;29.53;;;12.20;99.90;;;;;;5033722;28;20474;-72
2023/04/17 02:45:09;;;;;;;38.63;29.97;;;12.30;99.90;;;;;;5033728;28;20454;-72
2023/04/17 02:47:36;;;;;;;39.57;31.40;;;12.20;99.90;;;;;;5033549;28;20466;-72
2023/04/17 02:50:05;;;;;;;40.77;30.40;;;12.20;99.90;;;;;;5033541;28;20529;-72
2023/04/17 02:52:33;;;;;;;39.93;30.60;;;12.20;99.90;;;;;;5033313;28;20454;-72
2023/04/17 02:55:00;;;;;;;37.23;29.03;;;12.20;99.90;;;;;;5033231;28;20951;-72
2023/04/17 02:57:30;;;;;;;43.60;31.60;;;12.30;99.90;;;;;;5033507;28;20466;-72
2023/04/17 02:59:57;;;;;;;36.43;29.13;;;12.20;99.90;;;;;;5032625;28;20447;-72
2023/04/17 03:02:25;;;;;;;40.60;32.77;;;12.30;99.90;;;;;;5033175;28;20474;-72
2023/04/17 03:04:52;;;;;;;39.60;31.30;;;12.30;99.90;;;;;;5033343;28;20546;-72
2023/04/17 03:07:22;;;;;;;40.70;31.67;;;12.30;99.90;;;;;;5037708;28;20479;-72
2023/04/17 03:09:52;;;;;;;42.73;31.40;;;12.30;99.90;;;;;;5039607;28;20438;-72
2023/04/17 03:12:20;;;;;;;35.67;29.80;;;12.20;99.90;;;;;;5038133;28;20426;-71
2023/04/17 03:14:47;;;;;;;36.67;29.30;;;12.20;99.90;;;;;;5037794;28;20474;-72
2023/04/17 03:17:15;;;;;;;39.50;31.47;;;12.20;99.90;;;;;;5037637;28;20869;-72
2023/04/17 03:19:42;;;;;;;42.77;32.33;;;12.20;99.90;;;;;;5039302;28;20462;-72
2023/04/17 03:22:09;;;;;;;43.77;33.53;;;12.20;99.90;;;;;;5041316;28;20465;-72
2023/04/17 03:24:36;;;;;;;34.60;28.93;;;12.20;99.90;;;;;;5042341;28;20438;-72
2023/04/17 03:27:04;;;;;;;42.60;32.70;;;12.20;99.90;;;;;;5044310;28;20477;-72
2023/04/17 03:29:31;;;;;;;45.50;32.20;;;12.20;99.90;;;;;;5050309;28;20447;-72
2023/04/17 03:31:58;;;;;;;43.60;29.47;;;12.20;99.90;;;;;;5036695;28;20454;-72
2023/04/17 03:34:27;;;;;;;40.10;28.33;;;12.20;99.90;;;;;;5036590;28;20438;-72
2023/04/17 03:36:54;;;;;;;40.63;30.70;;;12.20;99.90;;;;;;5036518;28;20470;-72
2023/04/17 03:39:21;;;;;;;40.93;30.80;;;12.20;99.90;;;;;;5036375;28;20947;-72
2023/04/17 03:41:48;;;;;;;46.60;36.30;;;12.20;99.90;;;;;;5036364;28;20841;-72
2023/04/17 03:44:17;;;;;;;43.93;31.17;;;12.20;99.90;;;;;;5036938;28;20474;-72
2023/04/17 03:46:47;;;;;;;43.87;34.30;;;12.20;99.90;;;;;;5036801;28;20995;-72
2023/04/17 03:49:14;;;;;;;48.30;35.87;;;12.20;99.90;;;;;;5037976;28;20485;-72
2023/04/17 03:51:41;;;;;;;48.83;36.50;;;12.20;99.90;;;;;;5038531;28;20446;-72
2023/04/17 03:54:08;;;;;;;52.70;35.93;;;12.10;99.90;;;;;;5038126;28;20458;-72
2023/04/17 03:56:35;;;;;;;48.30;35.50;;;12.20;99.90;;;;;;5035609;28;20975;-72
2023/04/17 03:59:03;;;;;;;47.73;34.83;;;12.10;99.90;;;;;;5035992;28;20454;-72
2023/04/17 04:01:31;;;;;;;48.63;34.43;;;12.20;99.90;;;;;;5036113;28;20446;-72
2023/04/17 04:03:59;;;;;;;44.33;33.33;;;12.10;99.90;;;;;;5035773;28;20891;-72
2023/04/17 04:06:28;;;;;;;47.00;35.77;;;12.10;99.90;;;;;;5036010;28;20509;-72
2023/04/17 04:08:55;;;;;;;49.90;35.37;;;12.10;99.90;;;;;;5037195;28;20446;-73
2023/04/17 04:11:22;;;;;;;51.50;36.83;;;12.10;99.90;;;;;;5035751;28;20454;-72
2023/04/17 04:13:49;;;;;;;42.77;32.80;;;12.10;99.90;;;;;;5034421;28;20825;-72
2023/04/17 04:16:16;;;;;;;52.33;37.00;;;12.10;99.90;;;;;;5035392;28;20478;-72
2023/04/17 04:18:45;;;;;;;53.10;37.83;;;12.10;99.90;;;;;;5035013;28;20454;-72
2023/04/17 04:21:12;;;;;;;49.03;36.57;;;12.10;99.90;;;;;;5035732;28;20529;-73
2023/04/17 04:23:40;;;;;;;51.40;38.47;;;12.10;99.90;;;;;;5035946;28;20494;-72
2023/04/17 04:26:07;;;;;;;47.60;33.67;;;12.10;99.90;;;;;;5034290;28;20466;-72
2023/04/17 04:28:34;;;;;;;51.80;38.50;;;12.10;99.90;;;;;;5035739;28;20826;-72
2023/04/17 04:31:01;;;;;;;53.50;35.37;;;12.10;99.90;;;;;;5035620;28;20454;-72
2023/04/17 04:33:29;;;;;;;46.73;35.30;;;12.10;99.90;;;;;;5035946;28;20451;-72
2023/04/17 04:35:59;;;;;;;53.33;39.47;;;12.10;99.90;;;;;;5035328;28;20521;-73
2023/04/17 04:38:29;;;;;;;53.53;39.30;;;12.10;99.90;;;;;;5035634;28;20447;-72
2023/04/17 04:41:00;;;;;;;55.93;40.03;;;12.10;99.90;;;;;;5035551;28;20457;-73
2023/04/17 04:43:28;;;;;;;56.53;39.10;;;12.10;99.90;;;;;;5035555;28;20565;-72
2023/04/17 04:45:55;;;;;;;51.17;38.80;;;12.10;99.90;;;;;;5034263;28;20446;-72
2023/04/17 04:48:23;;;;;;;54.57;39.83;;;12.10;99.90;;;;;;5035929;28;20454;-73
2023/04/17 04:50:50;;;;;;;51.13;38.93;;;12.10;99.90;;;;;;5043372;28;20457;-73
2023/04/17 04:53:18;;;;;;;51.73;39.90;;;12.10;99.90;;;;;;5040425;28;20791;-72
2023/04/17 04:55:45;;;;;;;54.63;37.67;;;12.10;99.90;;;;;;5035885;28;20457;-72
2023/04/17 05:01:34;;;;;;;52.67;38.30;;;12.10;99.90;;;;;;5017667;28;20429;-72
2023/04/17 05:04:01;;;;;;;48.57;36.20;;;12.10;99.90;;;;;;5016426;28;21004;-72
2023/04/17 05:06:28;;;;;;;57.10;42.37;;;12.10;99.90;;;;;;5017891;28;20478;-72
2023/04/17 05:08:56;;;;;;;50.53;37.10;;;12.10;99.90;;;;;;5018585;28;20451;-72
2023/04/17 05:11:23;;;;;;;53.63;39.63;;;12.10;99.90;;;;;;5017120;28;20447;-72
2023/04/17 05:13:50;;;;;;;56.10;42.67;;;12.10;99.90;;;;;;5018017;28;20439;-73
2023/04/17 05:16:17;;;;;;;62.73;45.80;;;12.10;99.90;;;;;;5018464;28;20521;-73
2023/04/17 05:18:46;;;;;;;61.83;42.20;;;12.10;99.90;;;;;;5021865;28;20447;-72
2023/04/17 05:21:13;;;;;;;55.33;44.20;;;12.20;99.90;;;;;;5027622;28;20451;-76
2023/04/17 05:23:40;;;;;;;58.90;43.57;;;12.20;99.90;;;;;;5023238;28;20479;-73
2023/04/17 05:26:09;;;;;;;61.17;44.80;;;12.20;99.90;;;;;;5014731;28;20562;-72
2023/04/17 05:28:36;;;;;;;58.60;43.50;;;12.20;99.90;;;;;;5015629;28;20495;-72
2023/04/17 05:31:03;;;;;;;57.70;42.23;;;12.20;99.90;;;;;;5017181;28;20451;-73
2023/04/17 05:33:30;;;;;;;63.17;44.40;;;12.30;99.90;;;;;;5017981;28;20514;-73
2023/04/17 05:35:57;;;;;;;55.10;43.17;;;12.30;99.90;;;;;;5020855;28;20458;-73
2023/04/17 05:38:24;;;;;;;57.60;42.00;;;12.30;99.90;;;;;;5021073;28;20956;-72
2023/04/17 05:40:52;;;;;;;59.20;44.07;;;12.30;99.90;;;;;;5026968;28;20458;-72
2023/04/17 05:43:21;;;;;;;58.97;44.93;;;12.30;99.90;;;;;;5027516;28;20494;-76
2023/04/17 05:45:48;;;;;;;63.60;44.17;;;12.40;99.90;;;;;;5017521;28;20447;-73
2023/04/17 05:48:15;;;;;;;56.77;42.83;;;12.40;99.90;;;;;;5014312;28;20447;-73
2023/04/17 05:50:42;;;;;;;59.63;42.10;;;12.40;99.90;;;;;;5013738;28;20994;-73
2023/04/17 05:53:08;;;;;;;60.40;44.33;;;12.40;99.90;;;;;;5014180;28;20454;-73
2023/04/17 05:55:35;;;;;;;63.13;45.10;;;12.40;99.90;;;;;;5014447;28;20462;-73
2023/04/17 05:58:02;;;;;;;53.70;43.20;;;12.40;99.90;;;;;;5014008;28;20470;-73
2023/04/17 06:00:31;;;;;;;60.43;42.23;;;12.40;99.90;;;;;;5014603;28;20455;-73
2023/04/17 06:03:00;;;;;;;61.80;46.00;;;12.40;99.90;;;;;;5014508;28;20960;-73
2023/04/17 06:05:26;;;;;;;62.60;43.20;;;12.50;99.90;;;;;;5014223;28;20960;-73
2023/04/17 06:07:53;;;;;;;57.50;43.70;;;12.50;99.90;;;;;;5014000;28;20471;-73
2023/04/17 06:10:22;;;;;;;61.40;45.10;;;12.50;99.90;;;;;;5013952;28;20451;-72
2023/04/17 06:12:49;;;;;;;53.37;42.13;;;12.50;99.90;;;;;;5014487;28;20459;-73
2023/04/17 06:15:16;;;;;;;60.57;45.10;;;12.60;99.90;;;;;;5014824;28;20800;-73
2023/04/17 06:17:45;;;;;;;62.50;44.80;;;12.60;99.90;;;;;;5014697;28;20846;-74
2023/04/17 06:20:12;;;;;;;59.53;45.83;;;12.60;99.90;;;;;;5013698;28;20451;-73
2023/04/17 06:22:43;;;;;;;57.43;45.00;;;12.60;99.90;;;;;;5014021;28;20455;-73
2023/04/17 06:25:10;;;;;;;57.20;43.97;;;12.50;99.90;;;;;;5014016;28;20526;-73
2023/04/17 06:27:37;;;;;;;60.33;46.03;;;12.60;99.90;;;;;;5014110;28;20514;-74
2023/04/17 06:30:05;;;;;;;62.37;46.43;;;12.60;99.90;;;;;;5013468;28;20451;-73
2023/04/17 06:32:32;;;;;;;60.63;47.33;;;12.60;99.90;;;;;;5013502;28;20937;-73
2023/04/17 06:35:00;;;;;;;62.30;48.27;;;12.60;99.90;;;;;;5013940;28;20446;-72
2023/04/17 06:37:27;;;;;;;64.23;44.97;;;12.60;99.90;;;;;;5013658;28;20471;-73
2023/04/17 06:39:54;;;;;;;57.33;43.80;;;12.70;99.90;;;;;;5014051;28;20601;-73
2023/04/17 06:42:21;;;;;;;67.63;48.53;;;12.70;99.90;;;;;;5017766;28;20451;-73
2023/04/17 06:44:48;;;;;;;60.47;46.13;;;12.70;99.90;;;;;;5017761;28;20505;-73
2023/04/17 06:47:15;;;;;;;56.47;43.17;;;12.70;99.90;;;;;;5018062;28;20472;-73
2023/04/17 06:49:41;;;;;;;57.97;47.37;;;12.70;99.90;;;;;;5018025;28;20454;-73
2023/04/17 06:52:10;;;;;;;55.37;41.97;;;12.70;99.90;;;;;;5017151;28;20450;-73
2023/04/17 06:54:37;;;;;;;60.00;44.90;;;12.70;99.90;;;;;;5018509;28;20447;-73
2023/04/17 06:57:08;;;;;;;59.40;44.90;;;12.70;99.90;;;;;;5018078;28;20478;-73
2023/04/17 06:59:35;;;;;;;59.73;46.40;;;12.70;99.90;;;;;;5017508;28;20435;-73
2023/04/17 07:02:02;;;;;;;58.10;45.63;;;12.70;99.90;;;;;;5016491;28;20483;-73
2023/04/17 07:04:30;;;;;;;63.17;47.33;;;12.70;99.90;;;;;;5016496;28;20511;-73
2023/04/17 07:06:57;;;;;;;60.30;47.57;;;12.70;99.90;;;;;;5016456;28;20471;-73
2023/04/17 07:09:26;;;;;;;58.33;46.17;;;12.70;99.90;;;;;;5018592;28;20436;-72
2023/04/17 07:11:53;;;;;;;59.37;46.17;;;12.70;99.90;;;;;;5017746;28;20443;-72
2023/04/17 07:14:21;;;;;;;61.40;47.30;;;12.70;99.90;;;;;;5018622;28;20454;-73
2023/04/17 07:16:48;;;;;;;57.67;44.00;;;12.80;99.90;;;;;;5017928;28;20478;-73
2023/04/17 07:19:15;;;;;;;64.63;48.90;;;12.80;99.90;;;;;;5018042;28;20451;-73
2023/04/17 07:21:42;;;;;;;65.50;46.93;;;12.90;99.90;;;;;;5016444;28;20455;-73
2023/04/17 07:24:09;;;;;;;54.97;43.00;;;12.90;99.90;;;;;;5017478;28;20487;-73
2023/04/17 07:26:39;;;;;;;61.23;44.60;;;12.90;99.90;;;;;;5020033;28;20478;-73
2023/04/17 07:29:07;;;;;;;53.70;41.87;;;12.90;99.90;;;;;;5019743;28;20799;-73
2023/04/17 07:31:34;;;;;;;55.20;44.30;;;13.00;99.90;;;;;;5019951;28;20447;-73
2023/04/17 07:34:01;;;;;;;54.90;43.13;;;13.00;99.90;;;;;;5021835;28;20943;-73
2023/04/17 07:36:28;;;;;;;59.30;45.03;;;13.10;99.90;;;;;;5029798;28;20455;-76
2023/04/17 07:38:55;;;;;;;52.53;44.40;;;13.10;99.90;;;;;;5021967;28;20861;-73
2023/04/17 07:41:22;;;;;;;53.73;40.80;;;13.20;99.90;;;;;;5016779;28;20448;-74
2023/04/17 07:43:50;;;;;;;50.40;41.47;;;13.30;99.90;;;;;;5017237;28;20485;-73
2023/04/17 07:46:17;;;;;;;48.10;41.43;;;13.40;99.90;;;;;;5015386;28;20467;-73
2023/04/17 07:48:45;;;;;;;50.40;41.57;;;13.50;99.90;;;;;;5016941;28;20447;-73
2023/04/17 07:51:11;;;;;;;48.40;39.73;;;13.60;99.90;;;;;;5015751;28;20447;-73
2023/04/17 07:53:38;;;;;;;46.13;39.77;;;13.70;99.90;;;;;;5017154;28;20451;-73
2023/04/17 07:56:06;;;;;;;50.40;42.33;;;13.90;99.90;;;;;;5021994;28;20471;-73
2023/04/17 07:58:34;;;;;;;46.33;39.07;;;14.00;99.90;;;;;;5031406;28;20467;-74
2023/04/17 08:01:04;;;;;;;49.53;38.67;;;14.10;99.90;;;;;;5018024;28;20542;-73
2023/04/17 08:03:31;;;;;;;45.83;38.90;;;14.10;99.90;;;;;;5017118;28;20525;-73
2023/04/17 08:05:58;;;;;;;45.47;39.03;;;14.30;99.90;;;;;;5015809;28;20563;-73
2023/04/17 08:08:25;;;;;;;43.07;38.50;;;14.40;99.90;;;;;;5016314;28;20447;-74
2023/04/17 08:10:53;;;;;;;43.43;37.33;;;14.40;99.70;;;;;;5016184;28;20447;-74
2023/04/17 08:13:19;;;;;;;45.33;39.47;;;14.40;99.40;;;;;;5015874;28;20820;-73
2023/04/17 08:15:46;;;;;;;42.83;38.23;;;14.40;99.10;;;;;;5016144;28;20443;-74
2023/04/17 08:18:15;;;;;;;40.17;35.57;;;14.40;99.20;;;;;;5015041;28;20456;-73
2023/04/17 08:20:42;;;;;;;41.20;36.70;;;14.50;99.20;;;;;;5016275;28;20448;-73
2023/04/17 08:23:09;;;;;;;41.23;36.83;;;14.50;98.90;;;;;;5016767;28;20480;-73
2023/04/17 08:25:36;;;;;;;44.87;37.40;;;14.60;98.70;;;;;;5015642;28;21004;-74
2023/04/17 08:28:04;;;;;;;41.97;37.70;;;14.70;98.50;;;;;;5014271;28;20536;-74
2023/04/17 08:30:31;;;;;;;42.57;37.70;;;14.80;98.40;;;;;;5016086;28;20478;-73
2023/04/17 08:32:57;;;;;;;39.37;35.17;;;14.90;98.10;;;;;;5016136;28;20458;-73
2023/04/17 08:35:26;;;;;;;40.13;35.93;;;15.00;97.90;;;;;;5016377;28;20448;-74
2023/04/17 08:37:54;;;;;;;41.97;37.57;;;15.10;97.60;;;;;;5016530;28;20467;-74
2023/04/17 08:40:23;;;;;;;42.97;38.50;;;15.10;96.60;;;;;;5018007;28;20455;-74
2023/04/17 08:42:52;;;;;;;43.53;38.93;;;15.20;96.30;;;;;;5018315;28;20451;-74
2023/04/17 08:45:20;;;;;;;41.70;36.70;;;15.20;96.20;;;;;;5019005;28;20494;-73
2023/04/17 08:47:47;;;;;;;38.30;34.40;;;15.20;96.40;;;;;;5026233;28;20478;-73
2023/04/17 08:50:15;;;;;;;40.07;35.97;;;15.30;96.10;;;;;;5028369;28;20455;-73
2023/04/17 08:52:45;;;;;;;56.17;40.47;;;15.40;95.50;;;;;;5017883;28;20867;-74
2023/04/17 08:55:14;;;;;;;41.73;37.37;;;15.60;95.40;;;;;;5015328;28;20449;-74
2023/04/17 08:57:55;;;;;;;40.80;36.63;;;15.70;95.20;;;;;;5015309;28;20478;-74
2023/04/17 09:00:26;;;;;;;39.37;35.33;;;15.80;94.80;;;;;;5015305;28;20453;-74
2023/04/17 09:02:54;;;;;;;38.30;34.50;;;15.80;94.40;;;;;;5013287;28;20483;-73
2023/04/17 09:05:23;;;;;;;42.43;35.13;;;15.90;94.50;;;;;;5014853;28;20488;-73
2023/04/17 09:08:07;;;;;;;38.37;34.40;;;16.00;94.20;;;;;;5014930;28;20475;-74
2023/04/17 09:10:38;;;;;;;36.77;32.87;;;16.10;94.00;;;;;;5014956;28;20451;-74
2023/04/17 09:13:05;;;;;;;34.50;31.10;;;16.30;93.30;;;;;;5015504;28;20455;-73
2023/04/17 09:15:32;;;;;;;33.77;30.40;;;16.40;92.80;;;;;;5015242;28;20522;-73
2023/04/17 09:17:59;;;;;;;33.87;29.53;;;16.50;92.00;;;;;;5015407;28;20463;-73
2023/04/17 09:20:26;;;;;;;32.33;29.13;;;16.50;92.00;;;;;;5015732;28;20458;-73
2023/04/17 09:23:02;;;;;;;31.83;28.70;;;16.50;92.10;;;;;;5014651;28;20453;-73
2023/04/17 09:25:29;;;;;;;34.73;31.00;;;16.40;92.00;;;;;;5015908;28;20498;-74
2023/04/17 09:28:08;;;;;;;33.67;30.27;;;16.30;91.80;;;;;;5015376;28;20546;-74
2023/04/17 09:30:37;;;;;;;33.50;29.60;;;16.30;92.10;;;;;;5015418;28;20436;-74
2023/04/17 09:33:05;;;;;;;31.70;28.60;;;16.40;92.60;;;;;;5015351;28;20479;-74
2023/04/17 09:35:33;;;;;;;30.57;27.37;;;16.40;92.30;;;;;;5014027;28;20443;-75
2023/04/17 09:38:01;;;;;;;30.47;25.70;;;16.50;91.80;;;;;;5013918;28;20506;-73
2023/04/17 09:40:36;;;;;;;27.23;24.33;;;16.60;91.60;;;;;;5015557;28;20451;-74
2023/04/17 09:43:05;;;;;;;27.50;24.50;;;16.70;91.30;;;;;;5017670;28;20435;-74
2023/04/17 09:45:35;;;;;;;25.77;22.80;;;16.80;91.10;;;;;;5017288;28;20494;-74
2023/04/17 09:48:04;;;;;;;27.43;24.67;;;16.80;90.10;;;;;;5020634;28;20478;-74
2023/04/17 09:50:32;;;;;;;28.10;25.40;;;16.90;90.00;;;;;;5023059;28;20454;-73
2023/04/17 09:53:03;;;;;;;26.50;23.67;;;16.90;89.80;;;;;;5027224;28;20454;-74
2023/04/17 09:55:32;;;;;;;25.47;22.97;;;17.10;90.10;;;;;;5014137;28;20810;-74
2023/04/17 09:58:01;;;;;;;24.37;21.97;;;17.30;90.00;;;;;;5014646;28;20475;-74
2023/04/17 10:00:29;;;;;;;23.50;21.00;;;17.50;88.60;;;;;;5014984;28;20471;-74
2023/04/17 10:02:58;;;;;;;24.77;22.23;;;17.70;86.60;;;;;;5013223;28;20487;-74
2023/04/17 10:05:27;;;;;;;26.10;23.57;;;18.00;86.30;;;;;;5014154;28;20497;-74
2023/04/17 10:07:55;;;;;;;25.43;23.03;;;18.30;85.70;;;;;;5014016;28;20483;-75
2023/04/17 10:10:26;;;;;;;23.37;21.30;;;18.80;84.20;;;;;;5015269;28;20451;-74
2023/04/17 10:12:56;;;;;;;23.83;21.63;;;19.40;80.90;;;;;;5014878;28;20447;-74
2023/04/17 10:15:25;;;;;;;22.70;20.47;;;19.90;77.80;;;;;;5014328;28;20991;-74
2023/04/17 10:17:55;;;;;;;22.83;20.43;;;20.50;75.70;;;;;;5014419;28;21050;-74
2023/04/17 10:20:38;;;;;;;23.90;21.83;;;21.00;73.00;;;;;;5015297;28;20454;-74
2023/04/17 10:23:28;;;;;;;22.53;20.43;;;21.40;67.40;;;;;;5013887;28;20447;-74
2023/04/17 10:26:40;;;;;;;20.70;18.67;;;21.80;66.90;;;;;;5013507;28;20862;-75
2023/04/17 10:29:09;;;;;;;19.13;17.40;;;22.30;64.20;;;;;;5013707;28;20436;-75
2023/04/17 10:32:23;;;;;;;19.47;17.27;;;23.00;59.80;;;;;;5013857;28;20450;-74
2023/04/17 10:34:50;;;;;;;21.53;19.43;;;23.50;57.00;;;;;;5013724;28;20506;-75
2023/04/17 10:37:17;;;;;;;19.57;17.87;;;23.60;53.50;;;;;;5013628;28;20980;-74
2023/04/17 10:40:04;;;;;;;20.73;18.07;;;23.70;54.40;;;;;;5013923;28;20451;-74
2023/04/17 10:42:32;;;;;;;18.80;17.30;;;23.70;53.50;;;;;;5013466;28;20934;-74
2023/04/17 10:45:04;;;;;;;16.20;14.80;;;23.70;52.70;;;;;;5013445;28;20479;-75
2023/04/17 10:47:33;;;;;;;14.63;13.37;;;24.20;52.00;;;;;;5013921;28;20474;-75
2023/04/17 10:50:02;;;;;;;14.97;13.80;;;25.10;51.20;;;;;;5014000;28;20458;-74
2023/04/17 10:52:43;;;;;;;14.83;13.53;;;26.00;46.50;;;;;;5013743;28;20448;-75
2023/04/17 10:55:14;;;;;;;17.03;15.50;;;26.60;41.40;;;;;;5013851;28;20438;-75
2023/04/17 10:57:53;;;;;;;15.80;13.90;;;26.80;41.40;;;;;;5013683;28;20493;-75
2023/04/17 11:00:30;;;;;;;15.30;13.70;;;26.70;41.80;;;;;;5013717;28;20944;-75
2023/04/17 11:02:57;;;;;;;14.90;13.70;;;26.80;41.50;;;;;;5022046;28;20431;-74
2023/04/17 11:05:24;;;;;;;17.13;15.60;;;27.10;40.60;;;;;;5020209;28;20486;-75
2023/04/17 11:07:51;;;;;;;17.37;15.97;;;27.60;40.40;;;;;;5013553;28;20984;-75
2023/04/17 11:10:19;;;;;;;16.83;15.23;;;28.20;39.10;;;;;;5013573;28;20462;-74
2023/04/17 11:12:47;;;;;;;14.50;13.30;;;28.60;37.00;;;;;;5013270;28;20971;-75
2023/04/17 11:15:15;;;;;;;15.13;13.93;;;28.70;36.30;;;;;;5012529;28;20538;-75
2023/04/17 11:17:48;;;;;;;16.30;14.80;;;28.60;35.70;;;;;;5013628;28;20475;-74
2023/04/17 11:20:20;;;;;;;14.77;13.57;;;28.50;35.90;;;;;;5014032;28;20792;-75
2023/04/17 11:22:48;;;;;;;15.20;13.80;;;28.40;35.80;;;;;;5014983;28;20439;-74
2023/04/17 11:25:22;;;;;;;12.70;11.50;;;28.20;34.80;;;;;;5013680;28;20491;-75
2023/04/17 11:27:55;;;;;;;11.83;10.87;;;27.60;35.70;;;;;;5014850;28;20548;-75
2023/04/17 11:30:27;;;;;;;12.20;11.10;;;27.60;35.80;;;;;;5017432;28;20446;-75
2023/04/17 11:32:58;;;;;;;14.20;12.73;;;28.10;35.30;;;;;;5017420;28;20544;-74
2023/04/17 11:35:30;;;;;;;12.83;11.67;;;28.80;33.70;;;;;;5017500;28;20461;-75
2023/04/17 11:38:11;;;;;;;13.00;11.80;;;29.40;32.40;;;;;;5017760;28;20463;-75
2023/04/17 11:40:46;;;;;;;13.03;11.83;;;30.10;31.40;;;;;;5015357;28;20513;-72
2023/04/17 11:43:14;;;;;;;12.60;11.53;;;30.90;29.80;;;;;;5018788;28;20452;-73
2023/04/17 11:45:42;;;;;;;11.70;10.80;;;31.60;28.60;;;;;;5018973;28;20489;-74
2023/04/17 11:48:12;;;;;;;12.70;11.60;;;32.10;27.30;;;;;;5019506;28;20455;-73
2023/04/17 11:50:41;;;;;;;11.33;10.33;;;32.60;26.40;;;;;;5024253;28;20453;-73
2023/04/17 11:53:08;;;;;;;13.97;12.77;;;32.90;26.20;;;;;;5029591;28;20454;-73
2023/04/17 11:55:35;;;;;;;11.77;10.97;;;33.40;25.70;;;;;;5025648;28;20446;-73
2023/04/17 11:58:05;;;;;;;13.00;12.00;;;33.90;24.80;;;;;;5020196;28;20478;-74
2023/04/17 12:00:33;;;;;;;13.07;11.97;;;34.20;24.70;;;;;;5024354;28;20518;-73
2023/04/17 12:03:01;;;;;;;14.60;13.27;;;34.40;24.20;;;;;;5031885;28;20210;-74
2023/04/17 12:05:31;;;;;;;13.50;12.40;;;34.70;24.50;;;;;;5016143;28;20223;-74
2023/04/17 12:08:03;;;;;;;14.97;13.87;;;35.10;24.10;;;;;;5016192;28;20224;-74
2023/04/17 12:10:43;;;;;;;13.13;12.02;;;35.10;23.50;;;;;;5016345;28;20203;-74
2023/04/17 12:13:11;;;;;;;12.32;11.40;;;35.10;24.00;;;;;;5016457;28;20215;-74
2023/04/17 12:15:39;;;;;;;11.85;10.95;;;35.10;23.60;;;;;;5016630;28;20250;-73
2023/04/17 12:18:08;;;;;;;10.82;9.93;;;35.20;22.70;;;;;;5016371;28;20211;-74
2023/04/17 12:20:36;;;;;;;11.83;10.80;;;34.80;23.20;;;;;;5016227;28;20570;-73
2023/04/17 12:23:04;;;;;;;9.93;9.23;;;34.30;23.20;;;;;;5016800;28;20211;-74
2023/04/17 12:25:32;;;;;;;10.73;9.73;;;33.70;24.00;;;;;;5015009;28;20704;-74
2023/04/17 12:28:00;;;;;;;9.67;8.90;;;33.90;24.40;;;;;;5015495;28;20228;-74
2023/04/17 12:30:27;;;;;;;10.33;9.43;;;34.40;24.50;;;;;;5017272;28;20210;-73
2023/04/17 12:32:55;;;;;;;10.13;9.15;;;35.20;23.00;;;;;;5017669;28;20623;-73
2023/04/17 12:35:23;;;;;;;13.38;9.85;;;35.80;22.60;;;;;;5014198;28;20211;-73
2023/04/17 12:37:51;;;;;;;10.63;9.53;;;35.70;21.50;;;;;;5015297;28;20716;-73
2023/04/17 12:40:21;;;;;;;9.63;8.83;;;34.80;22.50;;;;;;5015539;28;20696;-74